sensor_id;sensor_type;location;lat;lon;timestamp;P1;durP1;ratioP1;P2;durP2;ratioP2
9522;SDS011;63165;43.016;25.784;2023-01-30T00:00:08;90.13;;;26.85;;
9522;SDS011;63165;43.016;25.784;2023-01-30T00:02:38;93.68;;;27.25;;
9522;SDS011;63165;43.016;25.784;2023-01-30T00:05:06;95.65;;;28.10;;
9522;SDS011;63165;43.016;25.784;2023-01-30T00:07:34;108.03;;;34.85;;
9522;SDS011;63165;43.016;25.784;2023-01-30T00:10:01;107.65;;;33.03;;
9522;SDS011;63165;43.016;25.784;2023-01-30T00:12:29;99.03;;;27.92;;
9522;SDS011;63165;43.016;25.784;2023-01-30T00:14:56;77.25;;;22.63;;
9522;SDS011;63165;43.016;25.784;2023-01-30T00:17:23;83.57;;;23.42;;
9522;SDS011;63165;43.016;25.784;2023-01-30T00:19:52;84.60;;;23.17;;
9522;SDS011;63165;43.016;25.784;2023-01-30T00:22:19;68.15;;;19.23;;
9522;SDS011;63165;43.016;25.784;2023-01-30T00:24:47;84.25;;;23.92;;
9522;SDS011;63165;43.016;25.784;2023-01-30T00:27:14;56.50;;;18.13;;
9522;SDS011;63165;43.016;25.784;2023-01-30T00:29:41;59.20;;;18.00;;
9522;SDS011;63165;43.016;25.784;2023-01-30T00:32:09;61.00;;;18.30;;
9522;SDS011;63165;43.016;25.784;2023-01-30T00:34:36;66.07;;;17.23;;
9522;SDS011;63165;43.016;25.784;2023-01-30T00:37:05;56.03;;;16.95;;
9522;SDS011;63165;43.016;25.784;2023-01-30T00:39:32;61.42;;;16.65;;
9522;SDS011;63165;43.016;25.784;2023-01-30T00:41:59;57.90;;;16.02;;
9522;SDS011;63165;43.016;25.784;2023-01-30T00:44:43;55.08;;;16.52;;
9522;SDS011;63165;43.016;25.784;2023-01-30T00:47:28;76.28;;;19.98;;
9522;SDS011;63165;43.016;25.784;2023-01-30T00:49:55;73.28;;;23.02;;
9522;SDS011;63165;43.016;25.784;2023-01-30T00:52:24;72.00;;;21.00;;
9522;SDS011;63165;43.016;25.784;2023-01-30T00:54:51;78.72;;;23.13;;
9522;SDS011;63165;43.016;25.784;2023-01-30T00:57:18;80.00;;;23.45;;
9522;SDS011;63165;43.016;25.784;2023-01-30T00:59:46;76.63;;;23.27;;
9522;SDS011;63165;43.016;25.784;2023-01-30T01:02:13;64.53;;;21.17;;
9522;SDS011;63165;43.016;25.784;2023-01-30T01:04:40;71.25;;;20.38;;
9522;SDS011;63165;43.016;25.784;2023-01-30T01:07:08;66.88;;;20.15;;
9522;SDS011;63165;43.016;25.784;2023-01-30T01:09:38;80.65;;;23.00;;
9522;SDS011;63165;43.016;25.784;2023-01-30T01:12:05;90.05;;;26.98;;
9522;SDS011;63165;43.016;25.784;2023-01-30T01:14:33;68.78;;;21.80;;
9522;SDS011;63165;43.016;25.784;2023-01-30T01:17:00;84.35;;;24.67;;
9522;SDS011;63165;43.016;25.784;2023-01-30T01:19:28;70.07;;;19.02;;
9522;SDS011;63165;43.016;25.784;2023-01-30T01:21:55;59.78;;;17.92;;
9522;SDS011;63165;43.016;25.784;2023-01-30T01:24:22;63.65;;;19.02;;
9522;SDS011;63165;43.016;25.784;2023-01-30T01:26:51;60.65;;;17.15;;
9522;SDS011;63165;43.016;25.784;2023-01-30T01:29:19;39.65;;;12.55;;
9522;SDS011;63165;43.016;25.784;2023-01-30T01:31:46;47.60;;;14.35;;
9522;SDS011;63165;43.016;25.784;2023-01-30T01:34:13;49.30;;;13.63;;
9522;SDS011;63165;43.016;25.784;2023-01-30T01:36:41;51.50;;;14.77;;
9522;SDS011;63165;43.016;25.784;2023-01-30T01:39:08;45.25;;;14.25;;
9522;SDS011;63165;43.016;25.784;2023-01-30T01:41:35;42.47;;;13.07;;
9522;SDS011;63165;43.016;25.784;2023-01-30T01:44:04;43.85;;;13.07;;
9522;SDS011;63165;43.016;25.784;2023-01-30T01:46:33;45.25;;;13.02;;
9522;SDS011;63165;43.016;25.784;2023-01-30T01:49:04;59.20;;;15.18;;
9522;SDS011;63165;43.016;25.784;2023-01-30T01:51:39;37.72;;;13.55;;
9522;SDS011;63165;43.016;25.784;2023-01-30T01:54:13;50.97;;;15.18;;
9522;SDS011;63165;43.016;25.784;2023-01-30T01:56:45;47.67;;;13.52;;
9522;SDS011;63165;43.016;25.784;2023-01-30T01:59:17;48.78;;;14.10;;
9522;SDS011;63165;43.016;25.784;2023-01-30T02:01:50;48.20;;;13.48;;
9522;SDS011;63165;43.016;25.784;2023-01-30T02:04:21;49.30;;;13.75;;
9522;SDS011;63165;43.016;25.784;2023-01-30T02:07:03;43.05;;;13.02;;
9522;SDS011;63165;43.016;25.784;2023-01-30T02:09:31;53.22;;;14.63;;
9522;SDS011;63165;43.016;25.784;2023-01-30T02:11:58;46.65;;;14.13;;
9522;SDS011;63165;43.016;25.784;2023-01-30T02:14:31;48.28;;;13.90;;
9522;SDS011;63165;43.016;25.784;2023-01-30T02:16:59;72.95;;;22.98;;
9522;SDS011;63165;43.016;25.784;2023-01-30T02:19:29;49.00;;;14.27;;
9522;SDS011;63165;43.016;25.784;2023-01-30T02:28:22;55.65;;;15.68;;
9522;SDS011;63165;43.016;25.784;2023-01-30T02:31:14;48.45;;;13.70;;
9522;SDS011;63165;43.016;25.784;2023-01-30T02:33:50;47.05;;;13.48;;
9522;SDS011;63165;43.016;25.784;2023-01-30T02:36:26;40.58;;;11.93;;
9522;SDS011;63165;43.016;25.784;2023-01-30T02:39:05;39.58;;;12.70;;
9522;SDS011;63165;43.016;25.784;2023-01-30T02:41:40;41.83;;;13.63;;
9522;SDS011;63165;43.016;25.784;2023-01-30T02:44:14;47.63;;;13.77;;
9522;SDS011;63165;43.016;25.784;2023-01-30T02:46:50;43.13;;;13.93;;
9522;SDS011;63165;43.016;25.784;2023-01-30T02:49:22;51.08;;;15.52;;
9522;SDS011;63165;43.016;25.784;2023-01-30T02:51:54;43.35;;;13.35;;
9522;SDS011;63165;43.016;25.784;2023-01-30T02:54:24;50.25;;;13.57;;
9522;SDS011;63165;43.016;25.784;2023-01-30T02:56:52;46.40;;;14.07;;
9522;SDS011;63165;43.016;25.784;2023-01-30T02:59:23;53.97;;;14.82;;
9522;SDS011;63165;43.016;25.784;2023-01-30T03:02:09;45.63;;;13.60;;
9522;SDS011;63165;43.016;25.784;2023-01-30T03:07:37;51.83;;;14.20;;
9522;SDS011;63165;43.016;25.784;2023-01-30T03:10:15;46.20;;;13.35;;
9522;SDS011;63165;43.016;25.784;2023-01-30T03:12:51;43.40;;;13.35;;
9522;SDS011;63165;43.016;25.784;2023-01-30T03:15:24;42.05;;;13.95;;
9522;SDS011;63165;43.016;25.784;2023-01-30T03:17:58;48.88;;;15.43;;
9522;SDS011;63165;43.016;25.784;2023-01-30T03:20:28;47.20;;;14.48;;
9522;SDS011;63165;43.016;25.784;2023-01-30T03:22:56;51.33;;;15.32;;
9522;SDS011;63165;43.016;25.784;2023-01-30T03:25:23;58.72;;;16.20;;
9522;SDS011;63165;43.016;25.784;2023-01-30T03:27:52;60.90;;;17.42;;
9522;SDS011;63165;43.016;25.784;2023-01-30T03:30:21;51.10;;;15.55;;
9522;SDS011;63165;43.016;25.784;2023-01-30T03:32:50;50.15;;;14.93;;
9522;SDS011;63165;43.016;25.784;2023-01-30T03:35:20;54.13;;;15.80;;
9522;SDS011;63165;43.016;25.784;2023-01-30T03:37:47;48.65;;;15.45;;
9522;SDS011;63165;43.016;25.784;2023-01-30T03:40:15;123.18;;;37.78;;
9522;SDS011;63165;43.016;25.784;2023-01-30T03:42:43;98.28;;;30.80;;
9522;SDS011;63165;43.016;25.784;2023-01-30T03:45:11;133.77;;;39.25;;
9522;SDS011;63165;43.016;25.784;2023-01-30T03:47:38;99.38;;;31.48;;
9522;SDS011;63165;43.016;25.784;2023-01-30T03:50:06;60.50;;;18.88;;
9522;SDS011;63165;43.016;25.784;2023-01-30T03:52:36;63.78;;;19.25;;
9522;SDS011;63165;43.016;25.784;2023-01-30T03:55:03;53.70;;;15.90;;
9522;SDS011;63165;43.016;25.784;2023-01-30T03:57:31;49.83;;;16.42;;
9522;SDS011;63165;43.016;25.784;2023-01-30T03:59:58;60.30;;;18.75;;
9522;SDS011;63165;43.016;25.784;2023-01-30T04:02:26;59.55;;;17.00;;
9522;SDS011;63165;43.016;25.784;2023-01-30T04:04:53;55.00;;;16.73;;
9522;SDS011;63165;43.016;25.784;2023-01-30T04:07:20;53.60;;;15.23;;
9522;SDS011;63165;43.016;25.784;2023-01-30T04:09:49;46.78;;;14.38;;
9522;SDS011;63165;43.016;25.784;2023-01-30T04:12:16;54.35;;;16.80;;
9522;SDS011;63165;43.016;25.784;2023-01-30T04:14:44;168.98;;;47.97;;
9522;SDS011;63165;43.016;25.784;2023-01-30T04:17:11;128.05;;;39.83;;
9522;SDS011;63165;43.016;25.784;2023-01-30T04:19:38;75.68;;;23.23;;
9522;SDS011;63165;43.016;25.784;2023-01-30T04:22:05;81.68;;;22.40;;
9522;SDS011;63165;43.016;25.784;2023-01-30T04:24:33;51.42;;;15.68;;
9522;SDS011;63165;43.016;25.784;2023-01-30T04:27:01;48.75;;;14.77;;
9522;SDS011;63165;43.016;25.784;2023-01-30T04:29:29;55.35;;;16.40;;
9522;SDS011;63165;43.016;25.784;2023-01-30T04:31:56;42.67;;;14.18;;
9522;SDS011;63165;43.016;25.784;2023-01-30T04:34:23;43.92;;;13.80;;
9522;SDS011;63165;43.016;25.784;2023-01-30T04:36:51;44.28;;;13.82;;
9522;SDS011;63165;43.016;25.784;2023-01-30T04:39:18;40.63;;;13.88;;
9522;SDS011;63165;43.016;25.784;2023-01-30T04:41:46;97.25;;;24.10;;
9522;SDS011;63165;43.016;25.784;2023-01-30T04:44:14;47.42;;;13.30;;
9522;SDS011;63165;43.016;25.784;2023-01-30T04:46:41;40.45;;;12.75;;
9522;SDS011;63165;43.016;25.784;2023-01-30T04:49:09;60.05;;;19.15;;
9522;SDS011;63165;43.016;25.784;2023-01-30T04:51:36;56.47;;;16.98;;
9522;SDS011;63165;43.016;25.784;2023-01-30T04:54:04;59.60;;;18.23;;
9522;SDS011;63165;43.016;25.784;2023-01-30T04:56:32;55.20;;;18.05;;
9522;SDS011;63165;43.016;25.784;2023-01-30T04:58:59;47.42;;;15.30;;
9522;SDS011;63165;43.016;25.784;2023-01-30T05:01:30;51.33;;;16.30;;
9522;SDS011;63165;43.016;25.784;2023-01-30T05:03:59;45.83;;;13.38;;
9522;SDS011;63165;43.016;25.784;2023-01-30T05:06:27;50.75;;;16.38;;
9522;SDS011;63165;43.016;25.784;2023-01-30T05:08:55;42.00;;;12.40;;
9522;SDS011;63165;43.016;25.784;2023-01-30T05:11:23;44.67;;;13.20;;
9522;SDS011;63165;43.016;25.784;2023-01-30T05:13:51;50.25;;;13.52;;
9522;SDS011;63165;43.016;25.784;2023-01-30T05:16:19;39.72;;;12.38;;
9522;SDS011;63165;43.016;25.784;2023-01-30T05:18:49;43.13;;;12.32;;
9522;SDS011;63165;43.016;25.784;2023-01-30T05:21:17;46.95;;;12.80;;
9522;SDS011;63165;43.016;25.784;2023-01-30T05:23:46;46.05;;;14.25;;
9522;SDS011;63165;43.016;25.784;2023-01-30T05:26:14;44.20;;;13.73;;
9522;SDS011;63165;43.016;25.784;2023-01-30T05:28:41;45.65;;;13.30;;
9522;SDS011;63165;43.016;25.784;2023-01-30T05:31:09;46.35;;;13.70;;
9522;SDS011;63165;43.016;25.784;2023-01-30T05:33:39;49.72;;;14.95;;
9522;SDS011;63165;43.016;25.784;2023-01-30T05:36:08;76.95;;;22.00;;
9522;SDS011;63165;43.016;25.784;2023-01-30T05:38:41;62.67;;;17.02;;
9522;SDS011;63165;43.016;25.784;2023-01-30T05:41:09;75.43;;;20.13;;
9522;SDS011;63165;43.016;25.784;2023-01-30T05:43:37;73.95;;;20.02;;
9522;SDS011;63165;43.016;25.784;2023-01-30T05:46:05;118.18;;;30.77;;
9522;SDS011;63165;43.016;25.784;2023-01-30T05:48:33;143.43;;;38.15;;
9522;SDS011;63165;43.016;25.784;2023-01-30T05:51:00;205.40;;;46.15;;
9522;SDS011;63165;43.016;25.784;2023-01-30T05:53:30;209.75;;;49.75;;
9522;SDS011;63165;43.016;25.784;2023-01-30T05:55:59;171.13;;;39.95;;
9522;SDS011;63165;43.016;25.784;2023-01-30T05:58:28;272.50;;;61.53;;
9522;SDS011;63165;43.016;25.784;2023-01-30T06:00:58;100.07;;;28.52;;
9522;SDS011;63165;43.016;25.784;2023-01-30T06:03:27;65.82;;;20.52;;
9522;SDS011;63165;43.016;25.784;2023-01-30T06:05:54;53.70;;;16.25;;
9522;SDS011;63165;43.016;25.784;2023-01-30T06:08:21;49.05;;;14.43;;
9522;SDS011;63165;43.016;25.784;2023-01-30T06:10:50;43.95;;;14.10;;
9522;SDS011;63165;43.016;25.784;2023-01-30T06:13:18;46.95;;;14.85;;
9522;SDS011;63165;43.016;25.784;2023-01-30T06:15:45;47.58;;;14.13;;
9522;SDS011;63165;43.016;25.784;2023-01-30T06:18:12;48.75;;;14.23;;
9522;SDS011;63165;43.016;25.784;2023-01-30T06:20:39;43.15;;;13.45;;
9522;SDS011;63165;43.016;25.784;2023-01-30T06:23:07;43.88;;;13.20;;
9522;SDS011;63165;43.016;25.784;2023-01-30T06:25:34;40.30;;;13.10;;
9522;SDS011;63165;43.016;25.784;2023-01-30T06:28:03;41.67;;;13.10;;
9522;SDS011;63165;43.016;25.784;2023-01-30T06:30:30;52.47;;;16.38;;
9522;SDS011;63165;43.016;25.784;2023-01-30T06:32:57;57.97;;;18.45;;
9522;SDS011;63165;43.016;25.784;2023-01-30T06:35:25;78.18;;;22.50;;
9522;SDS011;63165;43.016;25.784;2023-01-30T06:37:52;75.63;;;23.65;;
9522;SDS011;63165;43.016;25.784;2023-01-30T06:40:19;59.38;;;20.00;;
9522;SDS011;63165;43.016;25.784;2023-01-30T06:42:47;46.72;;;16.45;;
9522;SDS011;63165;43.016;25.784;2023-01-30T06:45:17;53.35;;;18.80;;
9522;SDS011;63165;43.016;25.784;2023-01-30T06:47:45;68.90;;;25.83;;
9522;SDS011;63165;43.016;25.784;2023-01-30T06:50:13;77.10;;;24.75;;
9522;SDS011;63165;43.016;25.784;2023-01-30T06:52:42;79.35;;;26.85;;
9522;SDS011;63165;43.016;25.784;2023-01-30T06:55:10;60.28;;;17.95;;
9522;SDS011;63165;43.016;25.784;2023-01-30T06:57:39;49.53;;;15.80;;
9522;SDS011;63165;43.016;25.784;2023-01-30T07:00:07;44.83;;;14.75;;
9522;SDS011;63165;43.016;25.784;2023-01-30T07:02:37;45.17;;;14.32;;
9522;SDS011;63165;43.016;25.784;2023-01-30T07:05:05;46.80;;;14.93;;
9522;SDS011;63165;43.016;25.784;2023-01-30T07:07:34;45.88;;;14.60;;
9522;SDS011;63165;43.016;25.784;2023-01-30T07:10:01;45.63;;;16.52;;
9522;SDS011;63165;43.016;25.784;2023-01-30T07:12:30;43.28;;;14.68;;
9522;SDS011;63165;43.016;25.784;2023-01-30T07:14:58;41.80;;;13.85;;
9522;SDS011;63165;43.016;25.784;2023-01-30T07:17:25;35.13;;;11.68;;
9522;SDS011;63165;43.016;25.784;2023-01-30T07:19:54;41.58;;;12.88;;
9522;SDS011;63165;43.016;25.784;2023-01-30T07:22:21;44.05;;;13.85;;
9522;SDS011;63165;43.016;25.784;2023-01-30T07:24:49;45.22;;;13.73;;
9522;SDS011;63165;43.016;25.784;2023-01-30T07:27:16;46.33;;;13.75;;
9522;SDS011;63165;43.016;25.784;2023-01-30T07:29:43;48.88;;;15.05;;
9522;SDS011;63165;43.016;25.784;2023-01-30T07:32:12;51.20;;;15.27;;
9522;SDS011;63165;43.016;25.784;2023-01-30T07:34:42;49.05;;;14.30;;
9522;SDS011;63165;43.016;25.784;2023-01-30T07:37:12;60.80;;;18.13;;
9522;SDS011;63165;43.016;25.784;2023-01-30T07:39:39;48.85;;;14.63;;
9522;SDS011;63165;43.016;25.784;2023-01-30T07:42:07;43.67;;;12.60;;
9522;SDS011;63165;43.016;25.784;2023-01-30T07:44:34;45.67;;;14.02;;
9522;SDS011;63165;43.016;25.784;2023-01-30T07:47:02;54.80;;;15.30;;
9522;SDS011;63165;43.016;25.784;2023-01-30T07:49:29;68.28;;;24.35;;
9522;SDS011;63165;43.016;25.784;2023-01-30T07:51:56;51.63;;;15.93;;
9522;SDS011;63165;43.016;25.784;2023-01-30T07:54:25;50.53;;;16.08;;
9522;SDS011;63165;43.016;25.784;2023-01-30T07:56:52;64.80;;;23.27;;
9522;SDS011;63165;43.016;25.784;2023-01-30T07:59:20;55.40;;;17.70;;
9522;SDS011;63165;43.016;25.784;2023-01-30T08:01:47;42.72;;;13.27;;
9522;SDS011;63165;43.016;25.784;2023-01-30T08:04:14;58.85;;;18.52;;
9522;SDS011;63165;43.016;25.784;2023-01-30T08:06:42;66.57;;;20.60;;
9522;SDS011;63165;43.016;25.784;2023-01-30T08:09:09;53.58;;;15.52;;
9522;SDS011;63165;43.016;25.784;2023-01-30T08:11:38;41.50;;;12.35;;
9522;SDS011;63165;43.016;25.784;2023-01-30T08:14:05;69.28;;;24.95;;
9522;SDS011;63165;43.016;25.784;2023-01-30T08:16:32;50.97;;;14.73;;
9522;SDS011;63165;43.016;25.784;2023-01-30T08:19:02;73.97;;;19.13;;
9522;SDS011;63165;43.016;25.784;2023-01-30T08:21:30;39.83;;;12.77;;
9522;SDS011;63165;43.016;25.784;2023-01-30T08:23:58;48.67;;;15.98;;
9522;SDS011;63165;43.016;25.784;2023-01-30T08:26:25;48.85;;;15.07;;
9522;SDS011;63165;43.016;25.784;2023-01-30T08:28:54;39.63;;;12.43;;
9522;SDS011;63165;43.016;25.784;2023-01-30T08:31:22;40.97;;;13.07;;
9522;SDS011;63165;43.016;25.784;2023-01-30T08:33:49;40.22;;;12.60;;
9522;SDS011;63165;43.016;25.784;2023-01-30T08:36:16;51.17;;;16.10;;
9522;SDS011;63165;43.016;25.784;2023-01-30T08:38:44;39.22;;;12.45;;
9522;SDS011;63165;43.016;25.784;2023-01-30T08:41:11;40.28;;;13.80;;
9522;SDS011;63165;43.016;25.784;2023-01-30T08:43:38;58.83;;;18.58;;
9522;SDS011;63165;43.016;25.784;2023-01-30T08:46:07;73.25;;;20.85;;
9522;SDS011;63165;43.016;25.784;2023-01-30T08:48:35;39.40;;;13.05;;
9522;SDS011;63165;43.016;25.784;2023-01-30T08:51:05;45.63;;;12.05;;
9522;SDS011;63165;43.016;25.784;2023-01-30T08:53:32;59.05;;;16.30;;
9522;SDS011;63165;43.016;25.784;2023-01-30T08:56:00;43.97;;;12.30;;
9522;SDS011;63165;43.016;25.784;2023-01-30T08:58:27;46.03;;;13.48;;
9522;SDS011;63165;43.016;25.784;2023-01-30T09:00:54;60.35;;;16.88;;
9522;SDS011;63165;43.016;25.784;2023-01-30T09:03:23;36.67;;;11.95;;
9522;SDS011;63165;43.016;25.784;2023-01-30T09:05:52;57.10;;;15.73;;
9522;SDS011;63165;43.016;25.784;2023-01-30T09:08:21;43.90;;;13.25;;
9522;SDS011;63165;43.016;25.784;2023-01-30T09:10:48;50.67;;;14.30;;
9522;SDS011;63165;43.016;25.784;2023-01-30T09:13:16;41.20;;;12.02;;
9522;SDS011;63165;43.016;25.784;2023-01-30T09:15:43;35.05;;;11.13;;
9522;SDS011;63165;43.016;25.784;2023-01-30T09:18:10;33.63;;;10.05;;
9522;SDS011;63165;43.016;25.784;2023-01-30T09:20:39;50.92;;;16.50;;
9522;SDS011;63165;43.016;25.784;2023-01-30T09:23:07;35.35;;;10.68;;
9522;SDS011;63165;43.016;25.784;2023-01-30T09:25:34;46.72;;;12.88;;
9522;SDS011;63165;43.016;25.784;2023-01-30T09:28:01;46.35;;;13.00;;
9522;SDS011;63165;43.016;25.784;2023-01-30T09:30:29;42.53;;;12.65;;
9522;SDS011;63165;43.016;25.784;2023-01-30T09:32:56;37.38;;;11.32;;
9522;SDS011;63165;43.016;25.784;2023-01-30T09:35:23;30.42;;;9.73;;
9522;SDS011;63165;43.016;25.784;2023-01-30T09:37:52;30.05;;;9.45;;
9522;SDS011;63165;43.016;25.784;2023-01-30T09:40:20;30.45;;;10.30;;
9522;SDS011;63165;43.016;25.784;2023-01-30T09:46:03;37.75;;;13.15;;
9522;SDS011;63165;43.016;25.784;2023-01-30T09:48:40;40.70;;;12.07;;
9522;SDS011;63165;43.016;25.784;2023-01-30T09:51:24;44.25;;;12.60;;
9522;SDS011;63165;43.016;25.784;2023-01-30T09:54:15;32.65;;;9.68;;
9522;SDS011;63165;43.016;25.784;2023-01-30T09:56:56;45.30;;;13.10;;
9522;SDS011;63165;43.016;25.784;2023-01-30T09:59:43;30.38;;;10.32;;
9522;SDS011;63165;43.016;25.784;2023-01-30T10:02:33;25.17;;;8.95;;
9522;SDS011;63165;43.016;25.784;2023-01-30T10:05:09;64.57;;;15.23;;
9522;SDS011;63165;43.016;25.784;2023-01-30T10:07:45;29.67;;;9.45;;
9522;SDS011;63165;43.016;25.784;2023-01-30T10:10:33;33.45;;;9.50;;
9522;SDS011;63165;43.016;25.784;2023-01-30T10:13:16;41.08;;;12.20;;
9522;SDS011;63165;43.016;25.784;2023-01-30T10:16:15;33.42;;;11.30;;
9522;SDS011;63165;43.016;25.784;2023-01-30T10:18:52;47.22;;;14.95;;
9522;SDS011;63165;43.016;25.784;2023-01-30T10:21:41;35.08;;;10.65;;
9522;SDS011;63165;43.016;25.784;2023-01-30T10:24:20;31.52;;;9.65;;
9522;SDS011;63165;43.016;25.784;2023-01-30T10:27:01;33.47;;;10.73;;
9522;SDS011;63165;43.016;25.784;2023-01-30T10:29:32;32.05;;;9.82;;
9522;SDS011;63165;43.016;25.784;2023-01-30T10:32:04;38.93;;;12.50;;
9522;SDS011;63165;43.016;25.784;2023-01-30T10:34:39;27.88;;;8.82;;
9522;SDS011;63165;43.016;25.784;2023-01-30T10:37:14;57.10;;;15.27;;
9522;SDS011;63165;43.016;25.784;2023-01-30T10:39:50;87.47;;;21.92;;
9522;SDS011;63165;43.016;25.784;2023-01-30T10:42:27;39.97;;;11.48;;
9522;SDS011;63165;43.016;25.784;2023-01-30T10:45:07;38.45;;;11.85;;
9522;SDS011;63165;43.016;25.784;2023-01-30T10:47:42;27.20;;;8.75;;
9522;SDS011;63165;43.016;25.784;2023-01-30T10:50:20;34.75;;;9.27;;
9522;SDS011;63165;43.016;25.784;2023-01-30T10:52:56;27.80;;;9.63;;
9522;SDS011;63165;43.016;25.784;2023-01-30T10:55:31;31.27;;;9.68;;
9522;SDS011;63165;43.016;25.784;2023-01-30T10:58:05;27.60;;;8.98;;
9522;SDS011;63165;43.016;25.784;2023-01-30T11:00:42;29.52;;;8.98;;
9522;SDS011;63165;43.016;25.784;2023-01-30T11:03:23;25.23;;;7.72;;
9522;SDS011;63165;43.016;25.784;2023-01-30T11:05:54;29.33;;;9.63;;
9522;SDS011;63165;43.016;25.784;2023-01-30T11:08:26;28.40;;;8.30;;
9522;SDS011;63165;43.016;25.784;2023-01-30T11:10:55;26.17;;;7.40;;
9522;SDS011;63165;43.016;25.784;2023-01-30T11:13:27;34.65;;;10.55;;
9522;SDS011;63165;43.016;25.784;2023-01-30T11:15:56;33.50;;;11.35;;
9522;SDS011;63165;43.016;25.784;2023-01-30T11:18:27;29.65;;;10.38;;
9522;SDS011;63165;43.016;25.784;2023-01-30T11:21:03;42.92;;;11.82;;
9522;SDS011;63165;43.016;25.784;2023-01-30T11:23:33;33.40;;;9.52;;
9522;SDS011;63165;43.016;25.784;2023-01-30T11:26:22;36.85;;;10.15;;
9522;SDS011;63165;43.016;25.784;2023-01-30T11:28:56;26.17;;;8.48;;
9522;SDS011;63165;43.016;25.784;2023-01-30T11:31:25;27.02;;;7.90;;
9522;SDS011;63165;43.016;25.784;2023-01-30T11:34:00;31.92;;;10.13;;
9522;SDS011;63165;43.016;25.784;2023-01-30T11:36:39;20.52;;;7.30;;
9522;SDS011;63165;43.016;25.784;2023-01-30T11:39:17;27.13;;;8.20;;
9522;SDS011;63165;43.016;25.784;2023-01-30T11:41:55;27.77;;;8.68;;
9522;SDS011;63165;43.016;25.784;2023-01-30T11:44:28;32.42;;;10.48;;
9522;SDS011;63165;43.016;25.784;2023-01-30T11:46:58;34.03;;;9.27;;
9522;SDS011;63165;43.016;25.784;2023-01-30T11:49:28;27.50;;;8.55;;
9522;SDS011;63165;43.016;25.784;2023-01-30T11:51:59;24.13;;;8.02;;
9522;SDS011;63165;43.016;25.784;2023-01-30T11:54:29;27.00;;;8.05;;
9522;SDS011;63165;43.016;25.784;2023-01-30T11:57:00;24.67;;;7.93;;
9522;SDS011;63165;43.016;25.784;2023-01-30T11:59:32;31.40;;;9.88;;
9522;SDS011;63165;43.016;25.784;2023-01-30T12:02:03;108.78;;;31.67;;
9522;SDS011;63165;43.016;25.784;2023-01-30T12:04:41;42.83;;;12.73;;
9522;SDS011;63165;43.016;25.784;2023-01-30T12:07:16;23.38;;;7.60;;
9522;SDS011;63165;43.016;25.784;2023-01-30T12:09:46;30.48;;;8.75;;
9522;SDS011;63165;43.016;25.784;2023-01-30T12:12:28;33.05;;;9.30;;
9522;SDS011;63165;43.016;25.784;2023-01-30T12:15:02;25.55;;;8.70;;
9522;SDS011;63165;43.016;25.784;2023-01-30T12:17:41;48.75;;;14.05;;
9522;SDS011;63165;43.016;25.784;2023-01-30T12:20:14;32.10;;;10.50;;
9522;SDS011;63165;43.016;25.784;2023-01-30T12:22:46;30.35;;;8.98;;
9522;SDS011;63165;43.016;25.784;2023-01-30T12:25:22;39.83;;;12.88;;
9522;SDS011;63165;43.016;25.784;2023-01-30T12:27:54;33.53;;;10.25;;
9522;SDS011;63165;43.016;25.784;2023-01-30T12:30:28;31.50;;;11.30;;
9522;SDS011;63165;43.016;25.784;2023-01-30T12:33:02;25.92;;;9.20;;
9522;SDS011;63165;43.016;25.784;2023-01-30T12:35:39;31.10;;;9.18;;
9522;SDS011;63165;43.016;25.784;2023-01-30T12:38:19;26.87;;;9.90;;
9522;SDS011;63165;43.016;25.784;2023-01-30T12:41:00;35.50;;;11.15;;
9522;SDS011;63165;43.016;25.784;2023-01-30T12:43:58;31.15;;;11.25;;
9522;SDS011;63165;43.016;25.784;2023-01-30T12:46:51;25.75;;;9.63;;
9522;SDS011;63165;43.016;25.784;2023-01-30T12:49:33;31.57;;;10.83;;
9522;SDS011;63165;43.016;25.784;2023-01-30T12:52:24;34.88;;;10.77;;
9522;SDS011;63165;43.016;25.784;2023-01-30T12:55:08;29.10;;;9.82;;
9522;SDS011;63165;43.016;25.784;2023-01-30T12:57:49;31.92;;;11.23;;
9522;SDS011;63165;43.016;25.784;2023-01-30T13:00:32;28.48;;;10.23;;
9522;SDS011;63165;43.016;25.784;2023-01-30T13:03:17;32.85;;;9.55;;
9522;SDS011;63165;43.016;25.784;2023-01-30T13:05:50;37.17;;;11.63;;
9522;SDS011;63165;43.016;25.784;2023-01-30T13:08:27;32.40;;;11.18;;
9522;SDS011;63165;43.016;25.784;2023-01-30T13:11:09;37.72;;;11.82;;
9522;SDS011;63165;43.016;25.784;2023-01-30T13:13:55;36.42;;;12.57;;
9522;SDS011;63165;43.016;25.784;2023-01-30T13:16:30;37.53;;;12.10;;
9522;SDS011;63165;43.016;25.784;2023-01-30T13:19:07;144.88;;;42.92;;
9522;SDS011;63165;43.016;25.784;2023-01-30T13:21:45;116.15;;;32.75;;
9522;SDS011;63165;43.016;25.784;2023-01-30T13:24:18;60.08;;;18.20;;
9522;SDS011;63165;43.016;25.784;2023-01-30T13:26:56;55.03;;;16.67;;
9522;SDS011;63165;43.016;25.784;2023-01-30T13:29:28;56.03;;;15.40;;
9522;SDS011;63165;43.016;25.784;2023-01-30T13:31:58;55.10;;;15.73;;
9522;SDS011;63165;43.016;25.784;2023-01-30T13:34:31;43.90;;;13.43;;
9522;SDS011;63165;43.016;25.784;2023-01-30T13:37:01;36.30;;;11.27;;
9522;SDS011;63165;43.016;25.784;2023-01-30T13:39:36;38.05;;;12.63;;
9522;SDS011;63165;43.016;25.784;2023-01-30T13:42:06;48.60;;;15.02;;
9522;SDS011;63165;43.016;25.784;2023-01-30T13:44:45;83.30;;;22.73;;
9522;SDS011;63165;43.016;25.784;2023-01-30T13:47:17;64.57;;;19.33;;
9522;SDS011;63165;43.016;25.784;2023-01-30T13:49:59;53.20;;;16.15;;
9522;SDS011;63165;43.016;25.784;2023-01-30T13:52:42;38.80;;;11.30;;
9522;SDS011;63165;43.016;25.784;2023-01-30T13:55:14;39.47;;;13.35;;
9522;SDS011;63165;43.016;25.784;2023-01-30T13:57:53;47.03;;;14.65;;
9522;SDS011;63165;43.016;25.784;2023-01-30T14:00:26;44.92;;;13.90;;
9522;SDS011;63165;43.016;25.784;2023-01-30T14:03:14;53.55;;;15.10;;
9522;SDS011;63165;43.016;25.784;2023-01-30T14:06:04;49.40;;;14.88;;
9522;SDS011;63165;43.016;25.784;2023-01-30T14:08:47;60.72;;;19.70;;
9522;SDS011;63165;43.016;25.784;2023-01-30T14:11:26;48.80;;;15.70;;
9522;SDS011;63165;43.016;25.784;2023-01-30T14:13:57;51.60;;;15.13;;
9522;SDS011;63165;43.016;25.784;2023-01-30T14:16:41;42.47;;;12.43;;
9522;SDS011;63165;43.016;25.784;2023-01-30T14:19:18;45.70;;;13.18;;
9522;SDS011;63165;43.016;25.784;2023-01-30T14:22:04;61.22;;;17.48;;
9522;SDS011;63165;43.016;25.784;2023-01-30T14:27:54;49.83;;;13.95;;
9522;SDS011;63165;43.016;25.784;2023-01-30T14:30:44;42.33;;;12.68;;
9522;SDS011;63165;43.016;25.784;2023-01-30T14:39:37;55.72;;;15.90;;
9522;SDS011;63165;43.016;25.784;2023-01-30T14:45:12;47.47;;;15.55;;
9522;SDS011;63165;43.016;25.784;2023-01-30T14:47:41;47.35;;;17.00;;
9522;SDS011;63165;43.016;25.784;2023-01-30T14:50:15;59.08;;;18.70;;
9522;SDS011;63165;43.016;25.784;2023-01-30T14:52:46;52.40;;;17.35;;
9522;SDS011;63165;43.016;25.784;2023-01-30T14:55:17;51.63;;;16.52;;
9522;SDS011;63165;43.016;25.784;2023-01-30T14:57:52;60.03;;;19.73;;
9522;SDS011;63165;43.016;25.784;2023-01-30T15:00:23;53.75;;;18.42;;
9522;SDS011;63165;43.016;25.784;2023-01-30T15:02:55;48.78;;;15.02;;
9522;SDS011;63165;43.016;25.784;2023-01-30T15:05:26;48.92;;;13.93;;
9522;SDS011;63165;43.016;25.784;2023-01-30T15:07:57;48.92;;;14.43;;
9522;SDS011;63165;43.016;25.784;2023-01-30T15:13:32;100.80;;;30.73;;
9522;SDS011;63165;43.016;25.784;2023-01-30T15:16:29;72.35;;;21.75;;